Time;durP1;ratioP1;P1;durP2;ratioP2;P2;SDS_P1;SDS_P2;PMS_P1;PMS_P2;Temp;Humidity;BMP_temperature;BMP_pressure;BME280_temperature;BME280_humidity;BME280_pressure;Samples;Min_cycle;Max_cycle;Signal;HPM_P1;HPM_P2
2021/09/29 00:02:20;;;;;;;11.20;9.70;;;;;;;;;;5001998;28;20188;-83
2021/09/29 00:05:24;;;;;;;12.50;11.17;;;;;;;;;;5024157;28;20180;-83
2021/09/29 00:08:28;;;;;;;13.07;11.03;;;;;;;;;;5012650;28;20192;-83
2021/09/29 00:11:33;;;;;;;12.87;11.53;;;;;;;;;;5001998;28;20187;-83
2021/09/29 00:14:37;;;;;;;12.90;11.30;;;;;;;;;;5024032;28;20650;-84
2021/09/29 00:17:43;;;;;;;12.47;10.97;;;;;;;;;;5012929;28;20192;-83
2021/09/29 00:20:47;;;;;;;14.20;10.97;;;;;;;;;;5023780;28;20216;-84
2021/09/29 00:23:51;;;;;;;13.87;11.80;;;;;;;;;;5023624;28;20192;-84
2021/09/29 00:26:55;;;;;;;14.47;11.13;;;;;;;;;;5012410;28;20188;-83
2021/09/29 00:30:04;;;;;;;13.67;11.50;;;;;;;;;;5011981;28;20224;-83
2021/09/29 00:33:15;;;;;;;14.23;10.67;;;;;;;;;;5012799;28;20192;-84
2021/09/29 00:36:19;;;;;;;12.33;10.80;;;;;;;;;;5023555;28;20204;-83
2021/09/29 00:39:23;;;;;;;12.73;10.57;;;;;;;;;;5012235;28;20583;-83
2021/09/29 00:42:27;;;;;;;11.00;9.83;;;;;;;;;;5024130;28;20207;-84
2021/09/29 00:45:31;;;;;;;11.50;10.33;;;;;;;;;;5023699;28;20185;-84
2021/09/29 00:48:35;;;;;;;11.67;10.47;;;;;;;;;;5011929;28;21888;-83
2021/09/29 00:51:39;;;;;;;12.20;10.97;;;;;;;;;;5023693;28;20188;-84
2021/09/29 00:54:43;;;;;;;12.13;9.73;;;;;;;;;;5023675;28;20184;-83
2021/09/29 00:57:47;;;;;;;10.37;9.37;;;;;;;;;;5033862;28;20181;-83
2021/09/29 01:00:52;;;;;;;9.87;8.87;;;;;;;;;;5011957;28;20212;-84
2021/09/29 01:03:57;;;;;;;10.70;9.70;;;;;;;;;;5011886;28;20181;-83
2021/09/29 01:07:22;;;;;;;12.30;9.53;;;;;;;;;;5011690;28;20184;-83
2021/09/29 01:10:47;;;;;;;12.83;9.10;;;;;;;;;;5022808;28;20217;-83
2021/09/29 01:14:15;;;;;;;9.47;8.07;;;;;;;;;;5011732;28;20189;-83
2021/09/29 01:17:21;;;;;;;11.17;9.27;;;;;;;;;;5011381;28;20172;-83
2021/09/29 01:20:33;;;;;;;11.10;10.00;;;;;;;;;;5022780;28;20587;-83
2021/09/29 01:23:56;;;;;;;12.87;9.50;;;;;;;;;;5000302;28;20192;-84
2021/09/29 01:27:01;;;;;;;9.90;8.90;;;;;;;;;;5011383;28;20181;-83
2021/09/29 01:30:07;;;;;;;12.07;9.47;;;;;;;;;;4999760;28;20556;-84
2021/09/29 01:33:12;;;;;;;13.17;9.27;;;;;;;;;;5033510;28;20197;-83
2021/09/29 01:36:18;;;;;;;10.03;8.90;;;;;;;;;;5022888;28;20643;-84
2021/09/29 01:39:26;;;;;;;12.03;9.67;;;;;;;;;;5022313;28;20238;-83
2021/09/29 01:42:30;;;;;;;12.57;9.70;;;;;;;;;;5034525;28;20291;-83
2021/09/29 01:45:36;;;;;;;10.13;9.03;;;;;;;;;;5011763;28;20181;-84
2021/09/29 01:48:58;;;;;;;10.23;8.77;;;;;;;;;;5021877;28;20233;-83
2021/09/29 01:52:06;;;;;;;10.60;9.17;;;;;;;;;;5021950;28;20177;-83
2021/09/29 01:55:16;;;;;;;11.17;9.97;;;;;;;;;;5011003;28;20208;-83
2021/09/29 01:58:20;;;;;;;10.53;9.53;;;;;;;;;;5010486;28;20196;-83
2021/09/29 02:01:25;;;;;;;11.53;9.67;;;;;;;;;;5010352;28;20204;-83
2021/09/29 02:04:30;;;;;;;11.17;9.87;;;;;;;;;;5022272;28;20184;-83
2021/09/29 02:07:35;;;;;;;11.30;9.80;;;;;;;;;;5022011;28;20177;-83
2021/09/29 02:10:38;;;;;;;11.33;10.13;;;;;;;;;;5009735;28;20216;-84
2021/09/29 02:13:43;;;;;;;13.37;11.67;;;;;;;;;;5010881;28;20196;-83
2021/09/29 02:16:49;;;;;;;13.07;11.33;;;;;;;;;;5022011;28;20654;-83
2021/09/29 02:19:53;;;;;;;13.53;12.23;;;;;;;;;;5021761;28;20235;-83
2021/09/29 02:22:57;;;;;;;14.43;11.87;;;;;;;;;;5021518;28;20184;-84
2021/09/29 02:26:01;;;;;;;14.20;11.70;;;;;;;;;;5010603;28;20188;-83
2021/09/29 02:29:07;;;;;;;13.90;12.47;;;;;;;;;;5021810;28;20219;-84
2021/09/29 02:32:11;;;;;;;14.30;12.63;;;;;;;;;;5010522;28;20650;-83
2021/09/29 02:35:15;;;;;;;14.57;12.20;;;;;;;;;;5010579;28;20203;-83
2021/09/29 02:38:19;;;;;;;16.57;12.77;;;;;;;;;;5010070;28;20567;-84
2021/09/29 02:41:25;;;;;;;14.03;12.53;;;;;;;;;;5021694;28;20208;-84
2021/09/29 02:44:29;;;;;;;14.97;11.13;;;;;;;;;;5033153;28;20204;-84
2021/09/29 02:47:33;;;;;;;13.87;12.03;;;;;;;;;;5033348;28;20191;-84
2021/09/29 02:50:38;;;;;;;16.47;13.47;;;;;;;;;;5021294;28;20224;-84
2021/09/29 02:53:42;;;;;;;15.07;12.17;;;;;;;;;;5033062;28;20650;-84
2021/09/29 02:56:45;;;;;;;15.23;12.53;;;;;;;;;;5021773;28;20196;-84
2021/09/29 02:59:50;;;;;;;17.43;13.00;;;;;;;;;;5021374;28;20227;-84
2021/09/29 03:02:54;;;;;;;13.20;11.80;;;;;;;;;;5010043;28;20539;-84
2021/09/29 03:05:58;;;;;;;16.67;12.53;;;;;;;;;;5032869;28;20184;-84
2021/09/29 03:09:02;;;;;;;16.53;13.30;;;;;;;;;;5007857;28;20576;-83
2021/09/29 03:12:07;;;;;;;14.73;11.80;;;;;;;;;;5006340;28;20200;-83
2021/09/29 03:15:11;;;;;;;15.40;12.83;;;;;;;;;;5006131;28;20555;-84
2021/09/29 03:18:15;;;;;;;14.23;12.43;;;;;;;;;;5017451;28;20563;-83
2021/09/29 03:21:19;;;;;;;19.10;12.20;;;;;;;;;;5018649;28;20216;-84
2021/09/29 03:24:23;;;;;;;15.57;12.33;;;;;;;;;;5021497;28;20192;-83
2021/09/29 03:27:28;;;;;;;15.30;11.93;;;;;;;;;;5009631;28;20188;-83
2021/09/29 03:30:32;;;;;;;19.23;12.97;;;;;;;;;;5020928;28;20440;-83
2021/09/29 03:33:36;;;;;;;14.10;12.00;;;;;;;;;;5009330;28;20196;-83
2021/09/29 03:36:40;;;;;;;19.63;13.33;;;;;;;;;;5009487;28;20203;-83
2021/09/29 03:39:44;;;;;;;18.70;13.83;;;;;;;;;;5009133;28;20224;-82
2021/09/29 03:42:48;;;;;;;18.80;13.70;;;;;;;;;;5009462;28;20702;-83
2021/09/29 03:45:53;;;;;;;16.20;13.70;;;;;;;;;;5009397;28;20203;-83
2021/09/29 03:48:57;;;;;;;20.30;12.83;;;;;;;;;;5009665;28;20235;-83
2021/09/29 03:52:02;;;;;;;18.47;14.50;;;;;;;;;;5032447;28;20192;-83
2021/09/29 03:55:07;;;;;;;16.70;13.93;;;;;;;;;;5029096;23;20240;-85
2021/09/29 03:58:11;;;;;;;18.90;15.13;;;;;;;;;;5005286;28;20678;-85
2021/09/29 04:01:15;;;;;;;22.63;14.97;;;;;;;;;;5007618;28;20702;-85
2021/09/29 04:04:20;;;;;;;19.40;15.77;;;;;;;;;;5005701;28;20228;-85
2021/09/29 04:07:25;;;;;;;20.87;16.73;;;;;;;;;;4997388;28;20647;-88
2021/09/29 04:10:29;;;;;;;22.10;16.70;;;;;;;;;;4982560;28;20208;-86
2021/09/29 04:13:33;;;;;;;23.47;16.87;;;;;;;;;;4993306;28;20224;-86
2021/09/29 04:16:37;;;;;;;18.97;16.63;;;;;;;;;;5007550;28;20188;-85
2021/09/29 04:19:41;;;;;;;23.20;15.97;;;;;;;;;;4998181;28;20188;-86
2021/09/29 04:22:45;;;;;;;21.63;18.13;;;;;;;;;;5000401;28;20544;-85
2021/09/29 04:25:52;;;;;;;21.67;16.97;;;;;;;;;;4987943;28;20541;-86
2021/09/29 04:28:56;;;;;;;20.00;16.03;;;;;;;;;;5004049;28;20189;-86
2021/09/29 04:32:00;;;;;;;21.80;16.67;;;;;;;;;;4998451;28;20544;-86
2021/09/29 04:35:05;;;;;;;20.33;15.80;;;;;;;;;;4984639;28;20224;-86
2021/09/29 04:38:09;;;;;;;19.83;15.97;;;;;;;;;;5009116;28;20656;-85
2021/09/29 04:41:13;;;;;;;19.13;16.17;;;;;;;;;;4993830;28;20208;-85
2021/09/29 04:44:17;;;;;;;21.50;16.43;;;;;;;;;;5003789;28;20231;-86
2021/09/29 04:47:21;;;;;;;20.97;15.70;;;;;;;;;;5015242;28;20200;-86
2021/09/29 04:50:25;;;;;;;30.93;15.80;;;;;;;;;;4993584;28;20179;-86
2021/09/29 04:53:29;;;;;;;22.53;16.50;;;;;;;;;;5003542;28;20288;-86
2021/09/29 04:56:34;;;;;;;20.60;16.43;;;;;;;;;;5005902;28;20189;-86
2021/09/29 04:59:38;;;;;;;23.80;17.67;;;;;;;;;;5014787;28;20200;-86
2021/09/29 05:02:45;;;;;;;22.73;17.43;;;;;;;;;;4992375;28;20557;-86
2021/09/29 05:05:49;;;;;;;20.50;17.17;;;;;;;;;;5003342;28;20659;-86
2021/09/29 05:08:57;;;;;;;24.47;17.53;;;;;;;;;;4981404;28;20189;-86
2021/09/29 05:12:16;;;;;;;24.73;17.80;;;;;;;;;;4992115;28;20640;-86
2021/09/29 05:15:20;;;;;;;28.00;19.70;;;;;;;;;;4980621;28;20224;-86
2021/09/29 05:18:24;;;;;;;25.90;19.37;;;;;;;;;;4981007;28;20189;-86
2021/09/29 05:21:28;;;;;;;27.43;19.23;;;;;;;;;;4991529;28;20702;-87
2021/09/29 05:24:33;;;;;;;26.37;19.57;;;;;;;;;;5002896;28;20224;-86
2021/09/29 05:27:37;;;;;;;27.93;18.90;;;;;;;;;;4991530;28;20220;-86
2021/09/29 05:30:41;;;;;;;27.53;19.67;;;;;;;;;;5013729;28;20211;-86
2021/09/29 05:33:46;;;;;;;26.87;20.00;;;;;;;;;;5013718;28;20235;-86
2021/09/29 05:36:50;;;;;;;26.77;19.20;;;;;;;;;;4991374;28;20188;-86
2021/09/29 05:39:54;;;;;;;26.67;19.57;;;;;;;;;;4991550;28;20196;-86
2021/09/29 05:42:58;;;;;;;28.33;19.60;;;;;;;;;;5014596;28;20184;-87
2021/09/29 05:46:03;;;;;;;29.30;20.57;;;;;;;;;;4991398;28;20196;-86
2021/09/29 05:49:07;;;;;;;27.87;20.33;;;;;;;;;;4980384;28;20200;-86
2021/09/29 05:52:11;;;;;;;30.13;21.53;;;;;;;;;;5002354;28;20204;-86
2021/09/29 05:55:15;;;;;;;26.10;17.87;;;;;;;;;;5013267;28;20227;-86
2021/09/29 05:58:19;;;;;;;25.03;18.87;;;;;;;;;;5002675;28;20184;-86
2021/09/29 06:01:24;;;;;;;25.87;17.73;;;;;;;;;;4979767;28;20228;-86
2021/09/29 06:04:28;;;;;;;25.70;17.63;;;;;;;;;;5013216;28;20706;-86
2021/09/29 06:07:32;;;;;;;23.13;17.50;;;;;;;;;;4990675;28;20192;-86
2021/09/29 06:10:36;;;;;;;22.67;17.67;;;;;;;;;;4990756;28;20212;-86
2021/09/29 06:13:40;;;;;;;26.90;16.47;;;;;;;;;;5002317;28;20571;-86
2021/09/29 06:16:47;;;;;;;21.40;15.70;;;;;;;;;;5001702;28;20188;-86
2021/09/29 06:19:53;;;;;;;22.13;16.37;;;;;;;;;;5002409;28;20208;-86
2021/09/29 06:22:58;;;;;;;22.27;17.03;;;;;;;;;;4990655;28;20184;-86
2021/09/29 06:26:04;;;;;;;22.97;16.07;;;;;;;;;;4991187;28;20200;-86
2021/09/29 06:29:10;;;;;;;22.23;15.47;;;;;;;;;;5002239;28;20533;-87
2021/09/29 06:32:15;;;;;;;24.30;16.60;;;;;;;;;;5001699;28;20180;-86
2021/09/29 06:35:19;;;;;;;21.43;15.60;;;;;;;;;;4979807;28;20228;-86
2021/09/29 06:38:23;;;;;;;22.30;14.80;;;;;;;;;;4990475;28;20196;-86
2021/09/29 06:41:27;;;;;;;23.57;14.87;;;;;;;;;;4990828;28;20561;-86
2021/09/29 06:44:31;;;;;;;20.90;14.93;;;;;;;;;;4990666;28;20228;-86
2021/09/29 06:47:38;;;;;;;18.30;14.43;;;;;;;;;;5001712;28;20212;-86
2021/09/29 06:50:42;;;;;;;21.47;14.40;;;;;;;;;;4990505;28;20201;-85
2021/09/29 06:53:46;;;;;;;17.53;13.53;;;;;;;;;;4979254;28;20244;-86
2021/09/29 06:56:51;;;;;;;16.83;13.83;;;;;;;;;;4993017;28;20188;-86
2021/09/29 06:59:56;;;;;;;21.07;13.70;;;;;;;;;;4994426;28;20219;-86
2021/09/29 07:03:00;;;;;;;17.90;13.57;;;;;;;;;;4994178;28;20257;-87
2021/09/29 07:06:04;;;;;;;19.73;13.97;;;;;;;;;;5005438;28;20560;-86
2021/09/29 07:09:09;;;;;;;18.83;14.43;;;;;;;;;;4994341;28;20184;-86
2021/09/29 07:12:13;;;;;;;18.53;13.23;;;;;;;;;;4994288;28;20532;-86
2021/09/29 07:15:17;;;;;;;17.27;13.03;;;;;;;;;;4994011;28;20228;-86
2021/09/29 07:18:27;;;;;;;17.13;12.37;;;;;;;;;;4994060;28;20208;-86
2021/09/29 07:21:31;;;;;;;16.30;12.40;;;;;;;;;;4993771;28;20221;-86
2021/09/29 07:24:35;;;;;;;18.33;12.67;;;;;;;;;;4993657;28;20232;-86
2021/09/29 07:27:40;;;;;;;16.70;11.70;;;;;;;;;;4993968;28;20196;-86
2021/09/29 07:30:45;;;;;;;17.90;12.17;;;;;;;;;;4993545;28;20208;-86
2021/09/29 07:33:50;;;;;;;12.67;11.20;;;;;;;;;;5004774;28;20220;-86
2021/09/29 07:36:54;;;;;;;17.87;11.53;;;;;;;;;;4993491;28;20544;-85
2021/09/29 07:39:58;;;;;;;16.50;11.13;;;;;;;;;;4994059;28;20192;-86
2021/09/29 07:43:03;;;;;;;13.50;10.47;;;;;;;;;;4993297;28;20216;-86
2021/09/29 07:46:08;;;;;;;14.73;10.97;;;;;;;;;;4993442;28;20193;-86
2021/09/29 07:49:11;;;;;;;14.00;11.37;;;;;;;;;;4982156;28;20212;-86
2021/09/29 07:52:16;;;;;;;13.37;10.37;;;;;;;;;;4993280;28;20239;-86
2021/09/29 07:55:20;;;;;;;14.73;10.97;;;;;;;;;;4993071;28;20275;-85
2021/09/29 07:58:27;;;;;;;12.37;10.17;;;;;;;;;;4993198;28;20184;-86
2021/09/29 08:01:31;;;;;;;14.30;11.07;;;;;;;;;;4993172;28;20213;-86
2021/09/29 08:04:35;;;;;;;13.40;10.70;;;;;;;;;;4993172;28;20714;-86
2021/09/29 08:07:40;;;;;;;13.60;10.03;;;;;;;;;;4991932;28;20197;-85
2021/09/29 08:10:44;;;;;;;14.70;11.30;;;;;;;;;;4982031;28;20189;-86
2021/09/29 08:13:48;;;;;;;15.53;9.73;;;;;;;;;;5004220;28;20220;-86
2021/09/29 08:16:52;;;;;;;13.23;9.27;;;;;;;;;;4992835;28;20185;-86
2021/09/29 08:19:56;;;;;;;9.93;8.50;;;;;;;;;;5004081;28;20193;-86
2021/09/29 08:29:28;;;;;;;12.37;8.50;;;;;;;;;;5015171;28;20649;-85
2021/09/29 08:35:57;;;;;;;12.50;8.10;;;;;;;;;;5014914;28;20177;-86
2021/09/29 08:39:09;;;;;;;9.53;7.40;;;;;;;;;;4992909;28;20186;-86
2021/09/29 08:45:49;;;;;;;14.03;6.40;;;;;;;;;;5003259;28;20225;-86
2021/09/29 08:49:09;;;;;;;8.37;5.73;;;;;;;;;;5003455;28;20186;-85
2021/09/29 08:55:48;;;;;;;9.53;6.10;;;;;;;;;;5002752;28;20719;-86
2021/09/29 09:19:08;;;;;;;5.63;4.13;;;;;;;;;;5002962;28;20182;-86
2021/09/29 09:22:14;;;;;;;6.20;3.93;;;;;;;;;;4991595;28;20209;-86
2021/09/29 09:25:49;;;;;;;7.73;3.23;;;;;;;;;;4991757;28;20550;-86
2021/09/29 09:29:06;;;;;;;7.57;3.00;;;;;;;;;;4961152;28;20178;-86
2021/09/29 09:32:12;;;;;;;3.47;2.47;;;;;;;;;;4972094;28;20187;-86
2021/09/29 09:35:16;;;;;;;4.13;2.10;;;;;;;;;;4960711;28;20213;-86
2021/09/29 09:38:24;;;;;;;4.07;1.90;;;;;;;;;;4971829;28;20531;-86
2021/09/29 09:41:29;;;;;;;3.37;1.67;;;;;;;;;;4972038;28;20178;-86
2021/09/29 09:44:34;;;;;;;4.40;1.80;;;;;;;;;;4982996;28;20225;-86
2021/09/29 09:47:46;;;;;;;2.90;1.70;;;;;;;;;;4971735;28;20186;-86
2021/09/29 09:50:55;;;;;;;3.77;1.90;;;;;;;;;;4960982;28;20519;-86
2021/09/29 09:54:00;;;;;;;4.00;1.90;;;;;;;;;;5009043;23;20245;-79
2021/09/29 09:57:21;;;;;;;2.27;1.70;;;;;;;;;;4998466;28;20351;-78
2021/09/29 10:00:27;;;;;;;3.10;1.30;;;;;;;;;;4998084;28;20193;-78
2021/09/29 10:03:31;;;;;;;2.13;0.93;;;;;;;;;;5000407;28;20555;-79
2021/09/29 10:06:36;;;;;;;3.40;0.90;;;;;;;;;;5000252;28;20183;-79
2021/09/29 10:13:09;;;;;;;1.67;0.90;;;;;;;;;;4999958;28;20657;-79
2021/09/29 10:23:17;;;;;;;3.23;1.30;;;;;;;;;;4976078;28;20213;-78
2021/09/29 10:29:36;;;;;;;3.77;0.90;;;;;;;;;;4977356;28;20189;-79
2021/09/29 10:32:45;;;;;;;1.80;1.00;;;;;;;;;;4991196;28;20177;-79
2021/09/29 10:36:20;;;;;;;1.37;0.80;;;;;;;;;;4991207;28;20186;-78
2021/09/29 10:43:02;;;;;;;2.50;0.97;;;;;;;;;;5003940;28;20220;-79
2021/09/29 10:53:04;;;;;;;4.50;0.87;;;;;;;;;;4991762;28;20214;-80
2021/09/29 11:11:03;;;;;;;3.17;1.07;;;;;;;;;;4992659;28;20182;-80
2021/09/29 11:27:38;;;;;;;4.63;1.10;;;;;;;;;;4991987;28;20178;-79
2021/09/29 11:34:31;;;;;;;1.77;0.70;;;;;;;;;;4935776;28;20196;-80
2021/09/29 11:38:21;;;;;;;1.83;0.70;;;;;;;;;;4969940;28;20194;-80
2021/09/29 12:08:28;;;;;;;1.50;0.60;;;;;;;;;;5003558;28;20186;-81
2021/09/29 12:11:54;;;;;;;1.87;0.97;;;;;;;;;;4991218;28;20222;-81
2021/09/29 12:15:04;;;;;;;1.10;0.70;;;;;;;;;;4977170;28;20182;-79
2021/09/29 12:18:13;;;;;;;1.70;0.80;;;;;;;;;;4989445;28;20522;-80
2021/09/29 12:21:42;;;;;;;5.23;0.90;;;;;;;;;;4992141;28;20217;-80
2021/09/29 12:24:50;;;;;;;1.53;0.60;;;;;;;;;;4990626;28;20180;-80
2021/09/29 12:37:33;;;;;;;2.33;0.80;;;;;;;;;;5000732;28;20182;-80
2021/09/29 12:40:40;;;;;;;3.63;0.80;;;;;;;;;;4967607;28;20704;-80
2021/09/29 12:43:44;;;;;;;1.10;0.80;;;;;;;;;;4989269;28;20222;-81
2021/09/29 12:47:23;;;;;;;2.03;0.70;;;;;;;;;;5000434;28;20182;-80
2021/09/29 12:50:38;;;;;;;3.10;0.90;;;;;;;;;;5001300;28;20183;-80
2021/09/29 12:53:56;;;;;;;4.30;0.70;;;;;;;;;;5000057;28;20182;-80
2021/09/29 12:57:00;;;;;;;1.40;0.60;;;;;;;;;;5000221;28;20190;-80
2021/09/29 13:00:05;;;;;;;3.17;0.80;;;;;;;;;;4979672;28;20185;-81
2021/09/29 13:03:09;;;;;;;2.13;0.73;;;;;;;;;;4991012;28;20203;-80
2021/09/29 13:06:14;;;;;;;0.83;0.67;;;;;;;;;;4990801;28;20187;-80
2021/09/29 13:09:18;;;;;;;1.27;0.60;;;;;;;;;;4979588;28;20186;-80
2021/09/29 13:12:22;;;;;;;6.13;1.00;;;;;;;;;;4989798;28;20214;-80
2021/09/29 13:15:27;;;;;;;2.73;0.90;;;;;;;;;;4978946;28;20206;-79
2021/09/29 13:38:11;;;;;;;1.97;0.57;;;;;;;;;;4979091;28;20187;-80
2021/09/29 13:41:15;;;;;;;2.43;0.80;;;;;;;;;;5002515;28;20217;-80
2021/09/29 13:44:23;;;;;;;1.10;0.70;;;;;;;;;;4980706;28;20206;-80
2021/09/29 13:47:27;;;;;;;3.00;0.80;;;;;;;;;;5003891;28;20178;-81
2021/09/29 13:50:31;;;;;;;2.17;0.97;;;;;;;;;;5004728;28;20178;-81
2021/09/29 13:53:35;;;;;;;2.33;0.80;;;;;;;;;;5003376;28;20622;-80
2021/09/29 13:56:46;;;;;;;2.60;1.20;;;;;;;;;;4991479;28;20174;-80
2021/09/29 14:00:01;;;;;;;3.63;1.10;;;;;;;;;;4969482;28;20187;-80
2021/09/29 14:30:15;;;;;;;4.67;1.63;;;;;;;;;;4992650;28;20187;-80
2021/09/29 14:33:25;;;;;;;3.37;1.30;;;;;;;;;;4992193;28;20178;-80
2021/09/29 14:36:29;;;;;;;2.90;1.60;;;;;;;;;;4992160;28;20182;-79
2021/09/29 14:39:34;;;;;;;2.30;1.20;;;;;;;;;;5001583;28;20174;-80
2021/09/29 14:42:38;;;;;;;2.80;1.30;;;;;;;;;;4980223;28;20550;-80
2021/09/29 14:45:43;;;;;;;2.00;1.13;;;;;;;;;;4989636;28;20630;-79
2021/09/29 14:48:47;;;;;;;3.20;1.17;;;;;;;;;;4990108;28;20194;-79
2021/09/29 14:51:51;;;;;;;2.47;0.73;;;;;;;;;;4978531;28;20218;-79
2021/09/29 14:54:55;;;;;;;2.57;1.00;;;;;;;;;;4978026;28;20202;-79
2021/09/29 14:58:00;;;;;;;3.53;0.93;;;;;;;;;;4985008;28;20173;-79
2021/09/29 15:01:05;;;;;;;5.87;1.00;;;;;;;;;;4985227;28;20221;-78
2021/09/29 15:04:09;;;;;;;2.33;0.90;;;;;;;;;;4996561;28;20210;-78
2021/09/29 15:07:14;;;;;;;3.97;1.00;;;;;;;;;;4985213;28;20732;-79
2021/09/29 15:10:18;;;;;;;2.43;1.13;;;;;;;;;;4984076;28;20182;-79
2021/09/29 15:13:33;;;;;;;2.60;1.30;;;;;;;;;;4984464;28;20178;-79
2021/09/29 15:16:55;;;;;;;3.53;1.00;;;;;;;;;;4973992;28;20191;-78
2021/09/29 15:20:09;;;;;;;4.20;1.13;;;;;;;;;;4988668;28;20641;-79
2021/09/29 15:26:49;;;;;;;1.80;0.90;;;;;;;;;;4999548;28;20585;-79
2021/09/29 15:30:03;;;;;;;3.33;0.87;;;;;;;;;;4977169;28;20182;-79
2021/09/29 15:46:52;;;;;;;2.70;0.70;;;;;;;;;;4985585;28;20190;-79
2021/09/29 15:50:08;;;;;;;2.07;0.90;;;;;;;;;;4976780;28;20186;-79
2021/09/29 16:00:16;;;;;;;1.90;0.80;;;;;;;;;;5000006;28;20190;-79
2021/09/29 16:03:45;;;;;;;2.53;1.10;;;;;;;;;;4997819;28;20190;-78
2021/09/29 16:06:57;;;;;;;2.97;0.90;;;;;;;;;;4976118;28;20190;-79
2021/09/29 16:13:38;;;;;;;2.63;0.80;;;;;;;;;;4986857;28;20187;-78
2021/09/29 16:23:20;;;;;;;3.70;0.77;;;;;;;;;;4976228;28;20186;-78
2021/09/29 16:33:33;;;;;;;4.10;1.03;;;;;;;;;;4985508;28;20191;-79
2021/09/29 16:36:37;;;;;;;4.50;1.10;;;;;;;;;;4984538;28;20191;-78
2021/09/29 16:39:43;;;;;;;3.10;1.23;;;;;;;;;;4997014;28;20186;-78
2021/09/29 16:42:51;;;;;;;1.10;0.80;;;;;;;;;;4986770;28;20186;-78
2021/09/29 16:45:57;;;;;;;2.87;0.90;;;;;;;;;;4988609;28;20178;-79
2021/09/29 16:49:03;;;;;;;2.17;0.90;;;;;;;;;;5000443;28;20201;-78
2021/09/29 16:52:25;;;;;;;7.67;0.83;;;;;;;;;;4987823;28;20628;-80
2021/09/29 16:55:31;;;;;;;3.37;0.77;;;;;;;;;;4988498;28;20202;-81
2021/09/29 16:58:49;;;;;;;8.23;1.17;;;;;;;;;;4985529;28;20190;-81
2021/09/29 17:01:57;;;;;;;6.10;1.37;;;;;;;;;;4962543;28;20218;-81
2021/09/29 17:05:01;;;;;;;2.33;0.93;;;;;;;;;;4997765;28;20562;-78
2021/09/29 17:08:06;;;;;;;3.17;0.77;;;;;;;;;;4985271;28;20190;-79
2021/09/29 17:11:12;;;;;;;5.30;1.53;;;;;;;;;;4984077;28;20217;-78
2021/09/29 17:14:16;;;;;;;5.50;1.47;;;;;;;;;;4985084;28;20182;-78
2021/09/29 17:17:20;;;;;;;5.13;2.87;;;;;;;;;;4998844;28;20194;-78
2021/09/29 17:20:25;;;;;;;4.27;1.00;;;;;;;;;;4984465;28;20182;-77
2021/09/29 17:23:33;;;;;;;4.03;0.80;;;;;;;;;;4996404;28;20178;-78
2021/09/29 17:26:37;;;;;;;3.87;0.67;;;;;;;;;;4974552;28;20191;-77
2021/09/29 17:29:42;;;;;;;2.10;0.80;;;;;;;;;;4997814;28;20182;-77
2021/09/29 17:36:19;;;;;;;0.73;0.50;;;;;;;;;;4985474;28;20747;-77
2021/09/29 17:48:02;;;;;;;2.57;0.70;;;;;;;;;;4980073;28;20214;-77
2021/09/29 17:52:49;;;;;;;2.20;0.60;;;;;;;;;;4981793;28;20183;-77
2021/09/29 17:55:54;;;;;;;2.70;0.70;;;;;;;;;;4990985;28;20676;-76
2021/09/29 17:58:58;;;;;;;2.93;0.60;;;;;;;;;;4991516;28;20625;-77
2021/09/29 18:02:07;;;;;;;0.83;0.47;;;;;;;;;;4980678;28;20217;-78
2021/09/29 18:08:40;;;;;;;2.07;0.40;;;;;;;;;;4969478;28;20178;-77
2021/09/29 18:11:44;;;;;;;1.80;0.50;;;;;;;;;;4990069;28;20217;-77
2021/09/29 18:14:48;;;;;;;1.93;0.60;;;;;;;;;;4978440;28;20181;-76
2021/09/29 18:17:53;;;;;;;1.10;0.50;;;;;;;;;;4968104;28;20186;-77
2021/09/29 18:20:57;;;;;;;0.30;0.30;;;;;;;;;;4981827;28;20222;-78
2021/09/29 18:24:20;;;;;;;1.43;0.47;;;;;;;;;;4983185;28;20211;-77
2021/09/29 18:27:24;;;;;;;1.07;0.43;;;;;;;;;;4979782;28;20178;-78
2021/09/29 18:30:29;;;;;;;0.80;0.50;;;;;;;;;;4980516;28;20182;-77
2021/09/29 18:33:35;;;;;;;1.40;0.60;;;;;;;;;;4979694;28;20197;-77
2021/09/29 18:36:41;;;;;;;0.87;0.40;;;;;;;;;;4979501;28;20182;-77
2021/09/29 18:39:47;;;;;;;0.80;0.50;;;;;;;;;;4978672;28;20202;-77
2021/09/29 18:42:52;;;;;;;3.03;0.70;;;;;;;;;;4967966;28;20182;-77
2021/09/29 18:45:56;;;;;;;1.10;0.57;;;;;;;;;;4969300;28;20201;-77
2021/09/29 18:49:08;;;;;;;0.83;0.70;;;;;;;;;;4979613;28;20187;-77
2021/09/29 18:52:14;;;;;;;0.50;0.50;;;;;;;;;;4992826;28;20696;-77
2021/09/29 18:55:24;;;;;;;1.00;0.50;;;;;;;;;;4994839;28;20205;-77
2021/09/29 19:08:38;;;;;;;0.60;0.57;;;;;;;;;;4995900;28;20186;-77
2021/09/29 19:11:42;;;;;;;1.13;0.70;;;;;;;;;;4984299;28;20222;-78
2021/09/29 19:14:46;;;;;;;1.40;0.70;;;;;;;;;;4984021;28;20182;-78
2021/09/29 19:17:50;;;;;;;1.80;0.60;;;;;;;;;;4995566;28;20206;-78
2021/09/29 19:20:55;;;;;;;2.63;0.53;;;;;;;;;;4995673;28;20209;-78
2021/09/29 19:24:00;;;;;;;1.40;0.70;;;;;;;;;;4984564;28;20219;-78
2021/09/29 19:27:05;;;;;;;0.83;0.60;;;;;;;;;;4995400;28;20190;-78
2021/09/29 19:30:10;;;;;;;0.60;0.60;;;;;;;;;;4993623;28;20190;-77
2021/09/29 19:33:14;;;;;;;0.67;0.57;;;;;;;;;;4982471;28;20186;-77
2021/09/29 19:36:18;;;;;;;1.30;0.63;;;;;;;;;;4983460;28;20178;-77
2021/09/29 19:39:23;;;;;;;1.80;0.77;;;;;;;;;;4994810;28;20186;-77
2021/09/29 19:42:27;;;;;;;0.30;0.30;;;;;;;;;;4995264;28;20226;-77
2021/09/29 19:45:31;;;;;;;1.53;0.50;;;;;;;;;;4971870;28;20214;-78
2021/09/29 19:52:18;;;;;;;0.70;0.60;;;;;;;;;;4994119;28;20562;-77
2021/09/29 20:08:53;;;;;;;0.60;0.60;;;;;;;;;;4993640;28;20179;-78
2021/09/29 20:12:00;;;;;;;0.93;0.60;;;;;;;;;;4971780;28;20704;-78
2021/09/29 20:15:09;;;;;;;1.60;0.63;;;;;;;;;;4982333;28;20197;-78
2021/09/29 20:18:13;;;;;;;1.23;0.70;;;;;;;;;;4971668;28;20526;-77
2021/09/29 20:21:17;;;;;;;2.07;0.93;;;;;;;;;;5027921;23;20233;-88
2021/09/29 20:24:22;;;;;;;0.87;0.70;;;;;;;;;;4993133;28;20189;-88
2021/09/29 20:27:26;;;;;;;1.53;0.80;;;;;;;;;;5016069;28;20506;-88
2021/09/29 20:30:30;;;;;;;1.50;0.83;;;;;;;;;;4993519;28;20552;-87
2021/09/29 20:43:29;;;;;;;0.97;0.80;;;;;;;;;;4993733;28;20178;-87
2021/09/29 20:46:32;;;;;;;1.03;0.80;;;;;;;;;;4992034;28;20229;-88
2021/09/29 20:49:39;;;;;;;1.83;0.70;;;;;;;;;;4984554;28;20557;-87
2021/09/29 20:52:48;;;;;;;1.33;0.90;;;;;;;;;;4984534;28;20189;-87
2021/09/29 20:55:52;;;;;;;1.50;1.00;;;;;;;;;;4984064;28;20177;-88
2021/09/29 20:58:57;;;;;;;2.33;0.80;;;;;;;;;;4984206;28;20201;-87
2021/09/29 21:02:01;;;;;;;1.33;0.80;;;;;;;;;;4993128;28;20197;-86
2021/09/29 21:05:07;;;;;;;1.57;0.87;;;;;;;;;;4984764;28;20213;-88
2021/09/29 21:08:13;;;;;;;2.80;1.23;;;;;;;;;;4980908;28;20518;-88
2021/09/29 21:12:06;;;;;;;0.87;0.77;;;;;;;;;;4985195;28;20209;-87
2021/09/29 21:14:54;;;;;;;2.27;0.70;;;;;;;;;;4997320;28;20177;-87
2021/09/29 21:18:02;;;;;;;1.10;0.77;;;;;;;;;;4988952;28;20525;-86
2021/09/29 21:21:07;;;;;;;1.90;0.70;;;;;;;;;;4991943;28;20232;-88
2021/09/29 21:24:11;;;;;;;3.90;1.00;;;;;;;;;;4991985;28;20173;-88
2021/09/29 21:27:15;;;;;;;2.00;1.07;;;;;;;;;;4986084;28;20194;-87
2021/09/29 21:30:20;;;;;;;4.30;1.00;;;;;;;;;;5008951;28;20221;-87
2021/09/29 21:33:31;;;;;;;1.07;0.77;;;;;;;;;;4985443;28;20177;-86
2021/09/29 21:36:37;;;;;;;7.80;0.80;;;;;;;;;;4993636;28;20510;-87
2021/09/29 21:39:58;;;;;;;1.07;0.70;;;;;;;;;;4993499;28;20216;-87
2021/09/29 22:03:46;;;;;;;1.83;0.53;;;;;;;;;;4991947;28;20182;-87
2021/09/29 22:14:10;;;;;;;0.80;0.60;;;;;;;;;;5007261;28;20181;-87
2021/09/29 22:17:39;;;;;;;1.00;0.80;;;;;;;;;;5002548;28;20632;-87
2021/09/29 22:21:30;;;;;;;3.13;0.83;;;;;;;;;;4991367;28;20220;-87
2021/09/29 22:58:21;;;;;;;1.40;0.90;;;;;;;;;;4997188;28;20178;-87
2021/09/29 23:07:52;;;;;;;1.50;0.70;;;;;;;;;;4995774;28;20213;-87
2021/09/29 23:11:07;;;;;;;1.80;0.90;;;;;;;;;;4987926;28;20217;-87
2021/09/29 23:34:46;;;;;;;4.40;0.80;;;;;;;;;;4994591;28;20181;-87
2021/09/29 23:37:51;;;;;;;0.73;0.53;;;;;;;;;;4995729;28;20177;-87
2021/09/29 23:41:02;;;;;;;1.83;0.70;;;;;;;;;;5006981;28;20212;-86
2021/09/29 23:44:07;;;;;;;1.90;0.70;;;;;;;;;;4985581;28;20178;-87
2021/09/29 23:47:12;;;;;;;2.50;0.50;;;;;;;;;;4985966;28;20213;-87
2021/09/29 23:50:18;;;;;;;1.07;0.60;;;;;;;;;;4993438;28;20217;-87
2021/09/29 23:53:22;;;;;;;1.47;0.70;;;;;;;;;;4994859;28;20186;-87
2021/09/29 23:56:26;;;;;;;2.33;0.60;;;;;;;;;;4994926;28;20173;-88
2021/09/29 23:59:31;;;;;;;1.07;0.63;;;;;;;;;;4986139;28;20186;-87
